Time;durP1;ratioP1;P1;durP2;ratioP2;P2;SDS_P1;SDS_P2;PMS_P1;PMS_P2;Temp;Humidity;BMP_temperature;BMP_pressure;BME280_temperature;BME280_humidity;BME280_pressure;Samples;Min_cycle;Max_cycle;Signal;HPM_P1;HPM_P2
2023/11/04 00:00:39;;;;;;;;;;;12.90;99.90;;;;;;4922023;29;19915;-78
2023/11/04 00:03:05;;;;;;;;;;;12.90;99.90;;;;;;4941310;29;19907;-78
2023/11/04 00:05:30;;;;;;;;;;;12.90;99.90;;;;;;4929333;29;19910;-80
2023/11/04 00:07:56;;;;;;;;;;;12.90;99.90;;;;;;4939239;29;19911;-78
2023/11/04 00:10:23;;;;;;;;;;;13.00;99.90;;;;;;4940678;29;19986;-78
2023/11/04 00:12:49;;;;;;;;;;;12.90;99.90;;;;;;4902835;29;19915;-78
2023/11/04 00:15:18;;;;;;;;;;;12.80;99.90;;;;;;4920472;29;19914;-78
2023/11/04 00:17:44;;;;;;;;;;;12.70;99.90;;;;;;4915425;29;19915;-78
2023/11/04 00:20:09;;;;;;;;;;;12.60;99.90;;;;;;4920987;29;20024;-78
2023/11/04 00:22:35;;;;;;;;;;;12.60;99.90;;;;;;4930377;29;19934;-78
2023/11/04 00:25:01;;;;;;;;;;;12.60;99.90;;;;;;4948889;29;19911;-78
2023/11/04 00:27:26;;;;;;;;;;;12.60;99.90;;;;;;4914202;29;19961;-78
2023/11/04 00:29:52;;;;;;;;;;;12.60;99.90;;;;;;4914292;29;20295;-78
2023/11/04 00:32:17;;;;;;;;;;;12.50;99.90;;;;;;4928974;29;19907;-78
2023/11/04 00:34:43;;;;;;;;;;;12.50;99.90;;;;;;4921763;29;19912;-78
2023/11/04 00:37:09;;;;;;;;;;;12.50;99.90;;;;;;4921450;29;19913;-78
2023/11/04 00:39:36;;;;;;;;;;;12.40;99.90;;;;;;4924776;29;20053;-78
2023/11/04 00:42:02;;;;;;;;;;;12.30;99.90;;;;;;4937911;29;19917;-78
2023/11/04 00:44:27;;;;;;;;;;;12.20;99.90;;;;;;4938646;29;19915;-78
2023/11/04 00:46:53;;;;;;;;;;;12.10;99.90;;;;;;4930396;29;19894;-78
2023/11/04 00:49:18;;;;;;;;;;;12.10;99.90;;;;;;4938362;29;19945;-78
2023/11/04 00:51:44;;;;;;;;;;;12.00;99.90;;;;;;4940111;29;20010;-78
2023/11/04 00:54:10;;;;;;;;;;;12.00;99.90;;;;;;4946254;29;19895;-78
2023/11/04 00:56:35;;;;;;;;;;;11.90;99.90;;;;;;4938063;29;19913;-77
2023/11/04 00:59:01;;;;;;;;;;;11.80;99.90;;;;;;4921339;29;19941;-78
2023/11/04 01:01:26;;;;;;;;;;;11.80;99.90;;;;;;4945286;29;19894;-78
2023/11/04 01:03:52;;;;;;;;;;;11.80;99.90;;;;;;4940848;29;20361;-79
2023/11/04 01:06:17;;;;;;;;;;;11.80;99.90;;;;;;4938069;29;19913;-79
2023/11/04 01:08:43;;;;;;;;;;;11.70;99.90;;;;;;4920889;29;19917;-78
2023/11/04 01:11:08;;;;;;;;;;;11.70;99.90;;;;;;4946111;29;20437;-78
2023/11/04 01:13:34;;;;;;;;;;;11.60;99.90;;;;;;4917781;29;19957;-78
2023/11/04 01:16:00;;;;;;;;;;;11.60;99.90;;;;;;4919232;29;19907;-78
2023/11/04 01:18:25;;;;;;;;;;;11.60;99.90;;;;;;4932850;29;19927;-78
2023/11/04 01:20:51;;;;;;;;;;;11.60;99.90;;;;;;4919362;29;19911;-77
2023/11/04 01:23:16;;;;;;;;;;;11.70;99.90;;;;;;4920574;29;19907;-78
2023/11/04 01:25:42;;;;;;;;;;;11.70;99.90;;;;;;4934512;29;19922;-78
2023/11/04 01:28:08;;;;;;;;;;;11.80;99.90;;;;;;4917807;29;20377;-77
2023/11/04 01:30:33;;;;;;;;;;;11.80;99.90;;;;;;4925898;29;20275;-78
2023/11/04 01:32:59;;;;;;;;;;;11.90;99.90;;;;;;4918431;29;20428;-78
2023/11/04 01:35:24;;;;;;;;;;;12.00;99.90;;;;;;4929208;29;19959;-78
2023/11/04 01:37:50;;;;;;;;;;;12.00;99.90;;;;;;4918411;29;20009;-77
2023/11/04 01:40:15;;;;;;;;;;;12.10;99.90;;;;;;4918591;29;19962;-76
2023/11/04 01:42:43;;;;;;;;;;;12.10;99.90;;;;;;4920131;29;19918;-76
2023/11/04 01:45:09;;;;;;;;;;;12.10;99.90;;;;;;4918326;29;19907;-77
2023/11/04 01:47:35;;;;;;;;;;;12.10;99.90;;;;;;4918362;29;19907;-77
2023/11/04 01:50:00;;;;;;;;;;;12.10;99.90;;;;;;4926555;29;19911;-77
2023/11/04 01:52:26;;;;;;;;;;;12.10;99.90;;;;;;4918392;29;20362;-77
2023/11/04 01:54:52;;;;;;;;;;;12.10;99.90;;;;;;4919975;29;20386;-77
2023/11/04 01:57:17;;;;;;;;;;;12.10;99.90;;;;;;4921873;29;20386;-77
2023/11/04 01:59:43;;;;;;;;;;;12.10;99.90;;;;;;4936534;29;19953;-78
2023/11/04 02:02:11;;;;;;;;;;;12.00;99.90;;;;;;4938065;29;20391;-77
2023/11/04 02:04:37;;;;;;;;;;;12.00;99.90;;;;;;4940383;29;19910;-77
2023/11/04 02:07:03;;;;;;;;;;;12.00;99.90;;;;;;4937211;29;20052;-77
2023/11/04 02:09:29;;;;;;;;;;;12.00;99.90;;;;;;4941280;29;19890;-78
2023/11/04 02:11:54;;;;;;;;;;;11.90;99.90;;;;;;4935308;29;19927;-77
2023/11/04 02:14:20;;;;;;;;;;;11.90;99.90;;;;;;4917644;29;19935;-76
2023/11/04 02:16:47;;;;;;;;;;;11.90;99.90;;;;;;4917432;29;19911;-77
2023/11/04 02:19:13;;;;;;;;;;;11.90;99.90;;;;;;4935907;29;19930;-77
2023/11/04 02:21:39;;;;;;;;;;;11.90;99.90;;;;;;4925533;29;19914;-77
2023/11/04 02:24:05;;;;;;;;;;;11.80;99.90;;;;;;4919717;29;20282;-77
2023/11/04 02:26:31;;;;;;;;;;;11.80;99.90;;;;;;4921631;29;19914;-77
2023/11/04 02:28:57;;;;;;;;;;;11.80;99.90;;;;;;4921650;29;19957;-77
2023/11/04 02:31:22;;;;;;;;;;;11.80;99.90;;;;;;4935892;29;19911;-77
2023/11/04 02:33:48;;;;;;;;;;;11.80;99.90;;;;;;4924256;29;19970;-78
2023/11/04 02:36:13;;;;;;;;;;;11.80;99.90;;;;;;4916362;29;19914;-78
2023/11/04 02:38:39;;;;;;;;;;;11.80;99.90;;;;;;4917528;29;19907;-77
2023/11/04 02:41:04;;;;;;;;;;;11.80;99.90;;;;;;4918911;29;19950;-79
2023/11/04 02:43:30;;;;;;;;;;;11.80;99.90;;;;;;4917525;29;20293;-76
2023/11/04 02:45:55;;;;;;;;;;;11.90;99.90;;;;;;4917727;29;19917;-78
2023/11/04 02:48:21;;;;;;;;;;;11.90;99.90;;;;;;4920379;29;19911;-77
2023/11/04 02:50:46;;;;;;;;;;;11.80;99.90;;;;;;4919287;29;20334;-78
2023/11/04 02:53:12;;;;;;;;;;;11.90;99.90;;;;;;4940001;29;19962;-76
2023/11/04 02:55:38;;;;;;;;;;;11.90;99.90;;;;;;4936321;29;19907;-77
2023/11/04 02:58:03;;;;;;;;;;;11.90;99.90;;;;;;4936438;29;20298;-77
2023/11/04 03:00:29;;;;;;;;;;;11.90;99.90;;;;;;4937968;29;19923;-77
2023/11/04 03:02:57;;;;;;;;;;;11.90;99.90;;;;;;4936191;29;19911;-76
2023/11/04 03:05:23;;;;;;;;;;;12.00;99.90;;;;;;4919053;29;19977;-78
2023/11/04 03:07:49;;;;;;;;;;;12.00;99.90;;;;;;4938030;29;19914;-77
2023/11/04 03:10:14;;;;;;;;;;;12.00;99.90;;;;;;4935687;29;19914;-76
2023/11/04 03:12:40;;;;;;;;;;;12.00;99.90;;;;;;4905056;29;20327;-78
2023/11/04 03:15:06;;;;;;;;;;;12.00;99.90;;;;;;4900380;29;19975;-75
2023/11/04 03:17:31;;;;;;;;;;;12.00;99.90;;;;;;4909831;29;20021;-78
2023/11/04 03:19:57;;;;;;;;;;;12.00;99.90;;;;;;4922655;29;19914;-76
2023/11/04 03:22:23;;;;;;;;;;;12.00;99.90;;;;;;4929474;29;20295;-76
2023/11/04 03:24:48;;;;;;;;;;;12.00;99.90;;;;;;4917345;29;19914;-76
2023/11/04 03:27:14;;;;;;;;;;;12.00;99.90;;;;;;4916872;29;19907;-78
2023/11/04 03:29:39;;;;;;;;;;;12.00;99.90;;;;;;4915824;29;19907;-77
2023/11/04 03:32:05;;;;;;;;;;;12.00;99.90;;;;;;4918948;29;20290;-75
2023/11/04 03:34:31;;;;;;;;;;;12.00;99.90;;;;;;4937685;29;19961;-77
2023/11/04 03:36:56;;;;;;;;;;;12.00;99.90;;;;;;4936330;29;19910;-77
2023/11/04 03:39:22;;;;;;;;;;;12.00;99.90;;;;;;4915824;29;19914;-75
2023/11/04 03:41:47;;;;;;;;;;;12.00;99.90;;;;;;4929243;29;19931;-77
2023/11/04 03:44:14;;;;;;;;;;;12.10;99.90;;;;;;4920639;29;20302;-77
2023/11/04 03:46:40;;;;;;;;;;;12.10;99.90;;;;;;4919305;29;19907;-75
2023/11/04 03:49:05;;;;;;;;;;;12.00;99.90;;;;;;4927761;29;19954;-76
2023/11/04 03:51:31;;;;;;;;;;;12.10;99.90;;;;;;4927532;29;19953;-76
2023/11/04 03:53:56;;;;;;;;;;;12.10;99.90;;;;;;4939231;29;20350;-76
2023/11/04 03:56:22;;;;;;;;;;;12.10;99.90;;;;;;4942641;29;19969;-77
2023/11/04 03:58:47;;;;;;;;;;;12.10;99.90;;;;;;4939570;29;19934;-77
2023/11/04 04:01:13;;;;;;;;;;;12.10;99.90;;;;;;4939526;29;19933;-77
2023/11/04 04:03:38;;;;;;;;;;;12.20;99.90;;;;;;4948767;29;19942;-77
2023/11/04 04:06:07;;;;;;;;;;;12.10;99.90;;;;;;4939421;29;19914;-78
2023/11/04 04:08:33;;;;;;;;;;;12.20;99.90;;;;;;4938920;29;19966;-77
2023/11/04 04:10:59;;;;;;;;;;;12.20;99.90;;;;;;4938098;29;19911;-75
2023/11/04 04:13:24;;;;;;;;;;;12.20;99.90;;;;;;4884374;29;19919;-75
2023/11/04 04:15:50;;;;;;;;;;;12.20;99.90;;;;;;4884127;29;20385;-77
2023/11/04 04:18:15;;;;;;;;;;;12.20;99.90;;;;;;4930937;29;20073;-77
2023/11/04 04:20:41;;;;;;;;;;;12.20;99.90;;;;;;4929802;29;19918;-77
2023/11/04 04:23:06;;;;;;;;;;;12.20;99.90;;;;;;4918477;29;20346;-75
2023/11/04 04:25:32;;;;;;;;;;;12.20;99.90;;;;;;4921644;29;19946;-76
2023/11/04 04:27:57;;;;;;;;;;;12.30;99.90;;;;;;4922068;29;19913;-75
2023/11/04 04:30:23;;;;;;;;;;;12.30;99.90;;;;;;4938720;29;19907;-75
2023/11/04 04:32:49;;;;;;;;;;;12.30;99.90;;;;;;4951608;29;19902;-75
2023/11/04 04:35:14;;;;;;;;;;;12.30;99.90;;;;;;4941093;29;20262;-76
2023/11/04 04:37:40;;;;;;;;;;;12.40;99.90;;;;;;4938762;29;20045;-76
2023/11/04 04:40:06;;;;;;;;;;;12.40;99.90;;;;;;4933419;29;19899;-77
2023/11/04 04:42:31;;;;;;;;;;;12.50;99.90;;;;;;4921357;29;20301;-76
2023/11/04 04:44:57;;;;;;;;;;;12.80;99.90;;;;;;4938470;29;19946;-76
2023/11/04 04:47:22;;;;;;;;;;;13.60;99.90;;;;;;4930721;29;19926;-76
2023/11/04 04:49:48;;;;;;;;;;;14.10;99.90;;;;;;4921280;29;19911;-77
2023/11/04 04:52:16;;;;;;;;;;;14.30;99.90;;;;;;4921321;29;19915;-77
2023/11/04 04:54:41;;;;;;;;;;;14.40;99.90;;;;;;4923222;29;19910;-77
2023/11/04 04:57:07;;;;;;;;;;;14.40;99.90;;;;;;4920956;29;19913;-80
2023/11/04 04:59:32;;;;;;;;;;;14.50;99.90;;;;;;4938077;29;19973;-78
2023/11/04 05:01:58;;;;;;;;;;;14.50;99.90;;;;;;4943105;29;20397;-77
2023/11/04 05:04:23;;;;;;;;;;;14.60;99.90;;;;;;4938233;29;19907;-76
2023/11/04 05:06:49;;;;;;;;;;;14.60;99.90;;;;;;4938268;29;20358;-79
2023/11/04 05:09:14;;;;;;;;;;;14.50;99.90;;;;;;4922472;29;19914;-77
2023/11/04 05:11:40;;;;;;;;;;;14.60;99.90;;;;;;4932343;29;19958;-78
2023/11/04 05:14:05;;;;;;;;;;;14.70;99.90;;;;;;4919159;29;20371;-75
2023/11/04 05:16:31;;;;;;;;;;;14.70;99.90;;;;;;4920276;29;19911;-79
2023/11/04 05:18:56;;;;;;;;;;;14.70;99.90;;;;;;4935387;29;20389;-77
2023/11/04 05:21:25;;;;;;;;;;;14.70;99.90;;;;;;4923611;29;19962;-79
2023/11/04 05:23:51;;;;;;;;;;;14.70;99.90;;;;;;4923530;29;19923;-77
2023/11/04 05:26:16;;;;;;;;;;;14.70;99.90;;;;;;4919354;29;20309;-76
2023/11/04 05:28:42;;;;;;;;;;;14.70;99.90;;;;;;4907393;29;19895;-78
2023/11/04 05:31:08;;;;;;;;;;;14.70;99.90;;;;;;4906022;29;19923;-78
2023/11/04 05:33:36;;;;;;;;;;;14.80;99.90;;;;;;4918546;29;19907;-78
2023/11/04 05:36:02;;;;;;;;;;;14.80;99.90;;;;;;4903426;29;19911;-78
2023/11/04 05:38:28;;;;;;;;;;;14.80;99.90;;;;;;4919127;29;19913;-77
2023/11/04 05:40:54;;;;;;;;;;;14.80;99.90;;;;;;4919035;29;19907;-77
2023/11/04 05:43:19;;;;;;;;;;;14.90;99.90;;;;;;4922121;29;19911;-77
2023/11/04 05:45:49;;;;;;;;;;;14.90;99.90;;;;;;4916118;29;19907;-78
2023/11/04 05:48:15;;;;;;;;;;;14.90;99.90;;;;;;4917172;29;19911;-76
2023/11/04 05:50:41;;;;;;;;;;;15.00;99.90;;;;;;4920356;29;19970;-76
2023/11/04 05:53:06;;;;;;;;;;;15.00;99.90;;;;;;4918471;29;20017;-76
2023/11/04 05:55:32;;;;;;;;;;;15.00;99.90;;;;;;4918394;29;20363;-76
2023/11/04 05:57:58;;;;;;;;;;;15.00;99.90;;;;;;4918788;29;19907;-76
2023/11/04 06:00:24;;;;;;;;;;;15.10;99.90;;;;;;4917978;29;20448;-79
2023/11/04 06:02:49;;;;;;;;;;;15.10;99.90;;;;;;4937369;29;19914;-77
2023/11/04 06:05:16;;;;;;;;;;;15.10;99.90;;;;;;4922363;29;20017;-78
2023/11/04 06:07:42;;;;;;;;;;;15.10;99.90;;;;;;4936951;29;19957;-76
2023/11/04 06:10:08;;;;;;;;;;;15.10;99.90;;;;;;4924268;29;19958;-76
2023/11/04 06:12:34;;;;;;;;;;;15.20;99.90;;;;;;4909864;29;19919;-78
2023/11/04 06:14:59;;;;;;;;;;;15.20;99.90;;;;;;4899199;29;19915;-77
2023/11/04 06:17:25;;;;;;;;;;;15.20;99.90;;;;;;4898838;29;19895;-76
2023/11/04 06:19:50;;;;;;;;;;;15.30;99.90;;;;;;4936828;29;19927;-78
2023/11/04 06:22:16;;;;;;;;;;;15.40;99.90;;;;;;4916401;29;20406;-80
2023/11/04 06:24:41;;;;;;;;;;;15.50;99.90;;;;;;4926060;29;19899;-76
2023/11/04 06:27:07;;;;;;;;;;;15.50;99.90;;;;;;4921136;29;19911;-78
2023/11/04 06:29:33;;;;;;;;;;;15.50;99.90;;;;;;4936857;29;19907;-76
2023/11/04 06:31:58;;;;;;;;;;;14.90;99.90;;;;;;4936973;29;20013;-77
2023/11/04 06:34:24;;;;;;;;;;;14.70;99.90;;;;;;4924051;29;19922;-77
2023/11/04 06:36:51;;;;;;;;;;;14.90;99.90;;;;;;4936544;29;19914;-80
2023/11/04 06:39:17;;;;;;;;;;;15.20;99.90;;;;;;4919519;29;19910;-78
2023/11/04 06:41:43;;;;;;;;;;;15.10;99.90;;;;;;4940324;29;20023;-75
2023/11/04 06:44:09;;;;;;;;;;;14.80;99.90;;;;;;4934991;29;19958;-76
2023/11/04 06:46:34;;;;;;;;;;;14.60;99.90;;;;;;4928998;29;19914;-75
2023/11/04 06:49:00;;;;;;;;;;;14.50;99.90;;;;;;4928745;29;20416;-76
2023/11/04 06:51:26;;;;;;;;;;;14.50;99.90;;;;;;4937013;29;20018;-76
2023/11/04 06:53:55;;;;;;;;;;;14.40;99.90;;;;;;4923546;29;19959;-76
2023/11/04 06:56:24;;;;;;;;;;;14.40;99.90;;;;;;4918510;29;19915;-76
2023/11/04 06:58:53;;;;;;;;;;;14.40;99.90;;;;;;4899001;29;19918;-79
2023/11/04 07:01:19;;;;;;;;;;;14.50;99.90;;;;;;4920529;29;19921;-76
2023/11/04 07:03:47;;;;;;;;;;;14.50;99.90;;;;;;4923808;29;19935;-76
2023/11/04 07:06:16;;;;;;;;;;;14.50;99.90;;;;;;4932561;29;19911;-78
2023/11/04 07:08:42;;;;;;;;;;;14.40;99.90;;;;;;4913125;29;19908;-78
2023/11/04 07:11:14;;;;;;;;;;;14.40;99.90;;;;;;4928600;29;19923;-77
2023/11/04 07:13:43;;;;;;;;;;;14.40;99.90;;;;;;4898541;29;19907;-77
2023/11/04 07:16:09;;;;;;;;;;;14.50;99.90;;;;;;4881577;29;19908;-76
2023/11/04 07:18:35;;;;;;;;;;;14.60;99.90;;;;;;4933520;29;20399;-78
2023/11/04 07:21:01;;;;;;;;;;;14.70;99.90;;;;;;4919019;29;19921;-76
2023/11/04 07:23:27;;;;;;;;;;;14.70;99.90;;;;;;4921984;29;20002;-76
2023/11/04 07:25:53;;;;;;;;;;;14.80;99.90;;;;;;4925318;29;20434;-76
2023/11/04 07:28:19;;;;;;;;;;;14.80;99.90;;;;;;4908457;29;19914;-79
2023/11/04 07:30:45;;;;;;;;;;;14.80;99.90;;;;;;4921455;29;19907;-76
2023/11/04 07:33:10;;;;;;;;;;;14.80;99.90;;;;;;4941209;29;19977;-77
2023/11/04 07:35:36;;;;;;;;;;;14.80;99.90;;;;;;4939791;29;19965;-76
2023/11/04 07:38:02;;;;;;;;;;;14.80;99.90;;;;;;4939633;29;19907;-78
2023/11/04 07:40:27;;;;;;;;;;;14.80;99.90;;;;;;4941251;29;20020;-78
2023/11/04 07:42:53;;;;;;;;;;;14.80;99.90;;;;;;4939584;29;20386;-77
2023/11/04 07:45:18;;;;;;;;;;;14.70;99.90;;;;;;4939443;29;19958;-78
2023/11/04 07:47:45;;;;;;;;;;;14.70;99.90;;;;;;4930048;29;19911;-80
2023/11/04 07:50:10;;;;;;;;;;;14.70;99.90;;;;;;4922308;29;20293;-77
2023/11/04 07:52:36;;;;;;;;;;;14.80;99.90;;;;;;4939357;29;19915;-77
2023/11/04 07:55:05;;;;;;;;;;;14.90;99.90;;;;;;4945585;29;19911;-77
2023/11/04 07:57:32;;;;;;;;;;;15.00;99.90;;;;;;4939550;29;19915;-77
2023/11/04 07:59:57;;;;;;;;;;;15.10;99.90;;;;;;4939874;29;20001;-77
2023/11/04 08:02:23;;;;;;;;;;;15.10;99.90;;;;;;4940962;29;19918;-77
2023/11/04 08:04:48;;;;;;;;;;;15.10;99.90;;;;;;4939485;29;19990;-77
2023/11/04 08:07:14;;;;;;;;;;;15.10;99.90;;;;;;4921911;29;19910;-78
2023/11/04 08:09:41;;;;;;;;;;;15.10;99.90;;;;;;4946459;29;20378;-77
2023/11/04 08:12:07;;;;;;;;;;;15.20;99.90;;;;;;4916978;29;19969;-78
2023/11/04 08:14:32;;;;;;;;;;;15.10;99.90;;;;;;4884251;29;19907;-76
2023/11/04 08:16:57;;;;;;;;;;;15.10;99.90;;;;;;4913665;29;19910;-78
2023/11/04 08:19:23;;;;;;;;;;;15.10;99.90;;;;;;4928840;29;19989;-76
2023/11/04 08:21:49;;;;;;;;;;;15.10;99.90;;;;;;4919109;29;19918;-79
2023/11/04 08:24:15;;;;;;;;;;;15.00;99.90;;;;;;4937066;29;19915;-76
2023/11/04 08:26:41;;;;;;;;;;;14.90;99.90;;;;;;4927896;29;20405;-77
2023/11/04 08:29:06;;;;;;;;;;;14.90;99.90;;;;;;4919930;29;20405;-77
2023/11/04 08:31:32;;;;;;;;;;;14.90;99.90;;;;;;4910898;29;19919;-77
2023/11/04 08:33:57;;;;;;;;;;;14.90;99.90;;;;;;4919808;29;19907;-77
2023/11/04 08:36:23;;;;;;;;;;;14.90;99.90;;;;;;4919549;29;20355;-78
2023/11/04 08:38:48;;;;;;;;;;;15.00;99.90;;;;;;4919943;29;19950;-78
2023/11/04 08:41:14;;;;;;;;;;;14.90;99.90;;;;;;4919543;29;19907;-78
2023/11/04 08:43:39;;;;;;;;;;;15.10;99.90;;;;;;4920507;29;19946;-78
2023/11/04 08:46:05;;;;;;;;;;;15.20;99.90;;;;;;4938860;29;19919;-78
2023/11/04 08:48:31;;;;;;;;;;;15.40;99.90;;;;;;4920983;29;19950;-76
2023/11/04 08:50:56;;;;;;;;;;;15.40;99.90;;;;;;4919178;29;19911;-76
2023/11/04 08:53:21;;;;;;;;;;;15.40;99.90;;;;;;4920849;29;19918;-78
2023/11/04 08:55:47;;;;;;;;;;;15.40;99.90;;;;;;4923478;29;19907;-78
2023/11/04 08:58:13;;;;;;;;;;;15.20;99.90;;;;;;4919457;29;19997;-77
2023/11/04 09:00:39;;;;;;;;;;;14.90;99.90;;;;;;4925770;29;19918;-76
2023/11/04 09:03:04;;;;;;;;;;;15.10;99.90;;;;;;4938357;29;19911;-76
2023/11/04 09:05:30;;;;;;;;;;;15.30;99.90;;;;;;4938395;29;19906;-78
2023/11/04 09:07:55;;;;;;;;;;;15.40;99.90;;;;;;4939603;29;19918;-76
2023/11/04 09:10:21;;;;;;;;;;;15.60;99.90;;;;;;4920742;29;19945;-78
2023/11/04 09:12:46;;;;;;;;;;;15.60;99.90;;;;;;4902978;29;19969;-79
2023/11/04 09:15:12;;;;;;;;;;;15.70;99.90;;;;;;4931267;29;20013;-79
2023/11/04 09:17:41;;;;;;;;;;;15.70;99.90;;;;;;4919688;29;20271;-76
2023/11/04 09:20:07;;;;;;;;;;;15.70;99.90;;;;;;4918642;29;20379;-79
2023/11/04 09:22:33;;;;;;;;;;;15.60;99.90;;;;;;4926660;29;19938;-79
2023/11/04 09:24:58;;;;;;;;;;;15.80;99.90;;;;;;4930882;29;19953;-79
2023/11/04 09:27:24;;;;;;;;;;;15.90;99.90;;;;;;4920672;29;19907;-78
2023/11/04 09:29:49;;;;;;;;;;;15.90;99.90;;;;;;4938886;29;20009;-78
2023/11/04 09:32:17;;;;;;;;;;;15.90;99.90;;;;;;4930019;29;19919;-79
2023/11/04 09:34:42;;;;;;;;;;;15.90;99.90;;;;;;4920504;29;20298;-80
2023/11/04 09:37:08;;;;;;;;;;;15.70;99.90;;;;;;4946299;29;19915;-78
2023/11/04 09:39:33;;;;;;;;;;;15.70;99.90;;;;;;4920004;29;19907;-77
2023/11/04 09:41:59;;;;;;;;;;;15.60;99.90;;;;;;4917194;29;19911;-77
2023/11/04 09:44:24;;;;;;;;;;;15.80;99.90;;;;;;4920414;29;19907;-79
2023/11/04 09:46:50;;;;;;;;;;;16.00;99.90;;;;;;4917127;29;19994;-79
2023/11/04 09:49:16;;;;;;;;;;;16.10;99.90;;;;;;4918569;29;19907;-78
2023/11/04 09:51:42;;;;;;;;;;;16.20;99.90;;;;;;4919515;29;19915;-79
2023/11/04 09:54:09;;;;;;;;;;;16.20;99.90;;;;;;4918337;29;19914;-79
2023/11/04 09:56:35;;;;;;;;;;;16.30;99.90;;;;;;4917855;29;19907;-79
2023/11/04 09:59:00;;;;;;;;;;;16.40;99.90;;;;;;4927946;29;20059;-77
2023/11/04 10:01:27;;;;;;;;;;;16.40;99.90;;;;;;4929371;29;19918;-79
2023/11/04 10:03:54;;;;;;;;;;;16.50;99.90;;;;;;4937057;29;19911;-78
2023/11/04 10:06:20;;;;;;;;;;;16.50;99.90;;;;;;4930834;29;19942;-78
2023/11/04 10:08:46;;;;;;;;;;;16.50;99.90;;;;;;4936908;29;19949;-77
2023/11/04 10:11:12;;;;;;;;;;;16.40;99.90;;;;;;4935334;29;19907;-79
2023/11/04 10:13:38;;;;;;;;;;;16.50;99.90;;;;;;4904918;29;19958;-80
2023/11/04 10:16:03;;;;;;;;;;;16.70;99.90;;;;;;4917847;29;19968;-80
2023/11/04 10:18:30;;;;;;;;;;;16.70;99.90;;;;;;4912149;29;20307;-79
2023/11/04 10:20:56;;;;;;;;;;;16.70;99.90;;;;;;4916743;29;19949;-78
2023/11/04 10:23:21;;;;;;;;;;;16.80;99.90;;;;;;4933334;29;20024;-79
2023/11/04 10:25:47;;;;;;;;;;;16.90;99.90;;;;;;4920222;29;20449;-79
2023/11/04 10:28:12;;;;;;;;;;;17.10;99.90;;;;;;4929159;29;19958;-77
2023/11/04 10:30:38;;;;;;;;;;;17.30;99.90;;;;;;4934904;29;19907;-78
2023/11/04 10:33:10;;;;;;;;;;;17.30;99.90;;;;;;4919851;29;19918;-79
2023/11/04 10:35:37;;;;;;;;;;;17.30;99.90;;;;;;4934026;29;19907;-81
2023/11/04 10:38:05;;;;;;;;;;;17.30;99.90;;;;;;4936573;29;19906;-79
2023/11/04 10:40:31;;;;;;;;;;;17.10;99.90;;;;;;4919552;29;19907;-77
2023/11/04 10:43:00;;;;;;;;;;;16.80;99.90;;;;;;4938425;29;19968;-78
2023/11/04 10:45:36;;;;;;;;;;;16.50;99.90;;;;;;4916272;29;19930;-79
2023/11/04 10:48:05;;;;;;;;;;;16.30;99.90;;;;;;4917736;29;19907;-78
2023/11/04 10:50:41;;;;;;;;;;;16.00;99.90;;;;;;4917523;29;20038;-77
2023/11/04 10:53:13;;;;;;;;;;;16.00;99.90;;;;;;4917040;29;20031;-77
2023/11/04 10:55:58;;;;;;;;;;;16.20;99.90;;;;;;4918047;29;20449;-79
2023/11/04 10:58:31;;;;;;;;;;;16.30;99.90;;;;;;4918552;29;20017;-78
2023/11/04 11:00:57;;;;;;;;;;;16.00;99.90;;;;;;4924386;29;19919;-78
2023/11/04 11:03:23;;;;;;;;;;;15.90;99.90;;;;;;4939584;29;20430;-78
2023/11/04 11:05:49;;;;;;;;;;;16.00;99.90;;;;;;4923247;29;19915;-78
2023/11/04 11:08:16;;;;;;;;;;;16.20;99.90;;;;;;4936342;29;19907;-81
2023/11/04 11:10:47;;;;;;;;;;;16.30;99.90;;;;;;4933609;29;19915;-78
2023/11/04 11:13:21;;;;;;;;;;;16.20;99.90;;;;;;4915717;29;19915;-78
2023/11/04 11:15:47;;;;;;;;;;;16.30;99.90;;;;;;4900429;29;19962;-78
2023/11/04 11:18:12;;;;;;;;;;;16.40;99.90;;;;;;4927013;29;19923;-78
2023/11/04 11:20:38;;;;;;;;;;;16.40;99.90;;;;;;4924961;29;19950;-79
2023/11/04 11:23:05;;;;;;;;;;;16.60;99.90;;;;;;4923410;29;19907;-76
2023/11/04 11:25:31;;;;;;;;;;;16.60;99.90;;;;;;4934218;29;19899;-79
2023/11/04 11:27:59;;;;;;;;;;;16.80;99.90;;;;;;4921426;29;20421;-77
2023/11/04 11:30:40;;;;;;;;;;;16.60;99.90;;;;;;4917571;29;19947;-79
2023/11/04 11:33:12;;;;;;;;;;;16.50;99.90;;;;;;4924039;29;19910;-77
2023/11/04 11:35:54;;;;;;;;;;;16.50;99.90;;;;;;4943825;29;19915;-77
2023/11/04 11:38:20;;;;;;;;;;;16.70;99.90;;;;;;4917538;29;19907;-79
2023/11/04 11:40:46;;;;;;;;;;;16.80;99.90;;;;;;4916332;29;19911;-78
2023/11/04 11:43:12;;;;;;;;;;;17.00;99.90;;;;;;4924170;29;20002;-77
2023/11/04 11:45:38;;;;;;;;;;;17.00;99.90;;;;;;4916840;29;19914;-79
2023/11/04 11:48:05;;;;;;;;;;;16.90;99.90;;;;;;4918876;29;19907;-80
2023/11/04 11:50:41;;;;;;;;;;;16.90;99.90;;;;;;4918864;29;20427;-80
2023/11/04 11:53:08;;;;;;;;;;;16.60;99.90;;;;;;4917238;29;19915;-79
2023/11/04 11:55:34;;;;;;;;;;;16.70;99.90;;;;;;4922267;29;19939;-79
2023/11/04 11:58:00;;;;;;;;;;;16.60;99.90;;;;;;4915799;29;20278;-79
2023/11/04 12:00:26;;;;;;;;;;;16.60;99.90;;;;;;4920249;29;19906;-78
2023/11/04 12:02:52;;;;;;;;;;;16.50;99.90;;;;;;4940625;28;19918;-78
2023/11/04 12:05:17;;;;;;;;;;;16.50;99.90;;;;;;4939320;29;20001;-78
2023/11/04 12:07:45;;;;;;;;;;;17.00;99.90;;;;;;4938996;29;20409;-77
2023/11/04 12:10:11;;;;;;;;;;;17.10;99.90;;;;;;4948605;29;20352;-79
2023/11/04 12:12:37;;;;;;;;;;;16.90;99.90;;;;;;4921819;29;20014;-79
2023/11/04 12:15:10;;;;;;;;;;;16.90;99.90;;;;;;4922169;29;20426;-77
2023/11/04 12:17:36;;;;;;;;;;;16.60;99.90;;;;;;4921827;29;19964;-76
2023/11/04 12:20:04;;;;;;;;;;;16.00;99.90;;;;;;4926703;29;19946;-78
2023/11/04 12:22:30;;;;;;;;;;;15.60;99.90;;;;;;4934720;29;19961;-78
2023/11/04 12:24:55;;;;;;;;;;;15.20;99.90;;;;;;4941146;29;19934;-78
2023/11/04 12:27:21;;;;;;;;;;;15.00;99.90;;;;;;4911934;29;19911;-79
2023/11/04 12:29:51;;;;;;;;;;;15.60;99.90;;;;;;4924422;29;19899;-79
2023/11/04 12:32:23;;;;;;;;;;;16.10;99.90;;;;;;4938602;29;20382;-80
2023/11/04 12:34:52;;;;;;;;;;;16.80;99.90;;;;;;4938776;29;20289;-78
2023/11/04 12:37:18;;;;;;;;;;;17.20;99.90;;;;;;4933172;29;19927;-79
2023/11/04 12:39:44;;;;;;;;;;;16.70;99.90;;;;;;4919992;29;20315;-78
2023/11/04 12:42:09;;;;;;;;;;;16.20;99.90;;;;;;4919988;29;19957;-77
2023/11/04 12:44:38;;;;;;;;;;;16.00;99.90;;;;;;4919953;29;20411;-77
2023/11/04 12:47:07;;;;;;;;;;;15.80;99.90;;;;;;4918636;29;19959;-76
2023/11/04 12:49:33;;;;;;;;;;;15.30;99.90;;;;;;4920465;29;20401;-77
2023/11/04 12:51:59;;;;;;;;;;;14.80;99.90;;;;;;4937306;29;19919;-77
2023/11/04 12:54:24;;;;;;;;;;;14.40;99.90;;;;;;4919682;29;19998;-76
2023/11/04 12:56:50;;;;;;;;;;;13.20;99.90;;;;;;4918898;29;20363;-78
2023/11/04 12:59:15;;;;;;;;;;;12.60;99.90;;;;;;4934821;29;19911;-76
2023/11/04 13:01:41;;;;;;;;;;;12.50;99.90;;;;;;4938461;29;19922;-77
2023/11/04 13:04:07;;;;;;;;;;;12.50;99.90;;;;;;4938495;29;19910;-79
2023/11/04 13:06:32;;;;;;;;;;;12.50;99.90;;;;;;4945660;29;19910;-78
2023/11/04 13:08:58;;;;;;;;;;;12.50;99.90;;;;;;4938028;29;20362;-77
2023/11/04 13:11:26;;;;;;;;;;;12.80;99.90;;;;;;4927150;29;19954;-79
2023/11/04 13:13:53;;;;;;;;;;;12.90;99.90;;;;;;4886145;29;19923;-78
2023/11/04 13:16:18;;;;;;;;;;;13.10;99.90;;;;;;4900112;29;19915;-78
2023/11/04 13:18:44;;;;;;;;;;;13.40;99.90;;;;;;4916691;29;19922;-77
2023/11/04 13:21:10;;;;;;;;;;;13.60;99.90;;;;;;4924959;29;19978;-77
2023/11/04 13:23:35;;;;;;;;;;;13.80;99.90;;;;;;4917288;29;19992;-77
2023/11/04 13:26:01;;;;;;;;;;;14.00;99.90;;;;;;4920410;29;19907;-79
2023/11/04 13:28:27;;;;;;;;;;;14.50;99.90;;;;;;4920329;29;20399;-79
2023/11/04 13:30:52;;;;;;;;;;;14.70;99.90;;;;;;4937236;29;20009;-79
2023/11/04 13:33:18;;;;;;;;;;;14.80;99.90;;;;;;4940864;29;19969;-78
2023/11/04 13:35:43;;;;;;;;;;;15.30;99.90;;;;;;4937729;29;19914;-78
2023/11/04 13:38:09;;;;;;;;;;;15.50;99.90;;;;;;4937760;29;19919;-78
2023/11/04 13:40:34;;;;;;;;;;;15.60;99.90;;;;;;4939246;29;19918;-77
2023/11/04 13:43:00;;;;;;;;;;;15.30;99.90;;;;;;4925503;29;20386;-77
2023/11/04 13:45:25;;;;;;;;;;;14.60;99.90;;;;;;4918666;29;19942;-79
2023/11/04 13:47:51;;;;;;;;;;;13.50;99.90;;;;;;4923708;29;19918;-78
2023/11/04 13:50:21;;;;;;;;;;;12.90;99.90;;;;;;4918862;29;20398;-78
2023/11/04 13:52:47;;;;;;;;;;;12.90;99.90;;;;;;4918749;29;19907;-77
2023/11/04 13:55:14;;;;;;;;;;;12.90;99.90;;;;;;4918313;29;19907;-78
2023/11/04 13:57:40;;;;;;;;;;;12.70;99.90;;;;;;4918522;29;19911;-77
2023/11/04 14:00:09;;;;;;;;;;;12.80;99.90;;;;;;4929734;29;19895;-77
2023/11/04 14:02:35;;;;;;;;;;;12.90;99.90;;;;;;4936760;29;19921;-78
2023/11/04 14:05:00;;;;;;;;;;;13.10;99.90;;;;;;4937041;29;19907;-78
2023/11/04 14:07:26;;;;;;;;;;;13.30;99.90;;;;;;4942523;29;19962;-79
2023/11/04 14:09:52;;;;;;;;;;;13.40;99.90;;;;;;4937146;29;19917;-79